Time,TemperatureF,DewpointF,PressureIn,WindDirection,WindDirectionDegrees,WindSpeedMPH,WindSpeedGustMPH,Humidity,HourlyPrecipIn,Conditions,Clouds,dailyrainin,SolarRadiationWatts/m^2,SoftwareType,DateUTC
2012-11-02 00:22:00,33.0,32.0,-100.00,ENE,68,5.0,6.0,98,0.00,,,0.00,1.000000,,2012-11-02 07:22:00,
2012-11-02 00:32:00,33.0,32.0,-100.00,ENE,68,5.0,6.0,98,0.00,,,0.00,1.000000,,2012-11-02 07:32:00,
2012-11-02 00:42:00,33.0,32.0,-100.00,ENE,68,5.0,6.0,98,0.00,,,0.00,1.000000,,2012-11-02 07:42:00,
2012-11-02 00:52:00,33.0,32.0,-100.00,ENE,68,5.0,6.0,98,0.00,,,0.00,1.000000,,2012-11-02 07:52:00,
2012-11-02 01:22:00,31.0,31.0,-100.00,East,90,4.0,6.0,98,0.00,,,0.00,1.000000,,2012-11-02 08:22:00,
2012-11-02 01:32:00,31.0,31.0,-100.00,East,90,4.0,6.0,98,0.00,,,0.00,1.000000,,2012-11-02 08:32:00,
2012-11-02 01:42:00,31.0,31.0,-100.00,East,90,4.0,6.0,98,0.00,,,0.00,1.000000,,2012-11-02 08:42:00,
2012-11-02 01:52:00,31.0,31.0,-100.00,East,90,4.0,6.0,98,0.00,,,0.00,1.000000,,2012-11-02 08:52:00,
2012-11-02 02:22:00,33.0,33.0,-100.00,East,80,1.0,6.0,99,0.00,,,0.00,1.000000,,2012-11-02 09:22:00,
2012-11-02 02:32:00,33.0,33.0,-100.00,East,80,1.0,6.0,99,0.00,,,0.00,1.000000,,2012-11-02 09:32:00,
2012-11-02 02:42:00,33.0,33.0,-100.00,East,80,1.0,6.0,99,0.00,,,0.00,1.000000,,2012-11-02 09:42:00,
2012-11-02 02:52:00,33.0,33.0,-100.00,East,80,1.0,6.0,99,0.00,,,0.00,1.000000,,2012-11-02 09:52:00,
2012-11-02 03:22:00,31.0,31.0,-100.00,East,99,3.0,5.0,98,0.00,,,0.00,1.000000,,2012-11-02 10:22:00,
2012-11-02 03:32:00,31.0,31.0,-100.00,East,99,3.0,5.0,98,0.00,,,0.00,1.000000,,2012-11-02 10:32:00,
2012-11-02 03:42:00,31.0,31.0,-100.00,East,99,3.0,5.0,98,0.00,,,0.00,1.000000,,2012-11-02 10:42:00,
2012-11-02 03:52:00,31.0,31.0,-100.00,East,99,3.0,5.0,98,0.00,,,0.00,1.000000,,2012-11-02 10:52:00,
2012-11-02 04:22:00,31.0,31.0,-100.00,East,88,4.0,5.0,99,0.00,,,0.00,1.000000,,2012-11-02 11:22:00,
2012-11-02 04:32:00,31.0,31.0,-100.00,East,88,4.0,5.0,99,0.00,,,0.00,1.000000,,2012-11-02 11:32:00,
2012-11-02 04:42:00,31.0,31.0,-100.00,East,88,4.0,5.0,99,0.00,,,0.00,1.000000,,2012-11-02 11:42:00,
2012-11-02 04:52:00,31.0,31.0,-100.00,East,88,4.0,5.0,99,0.00,,,0.00,1.000000,,2012-11-02 11:52:00,
2012-11-02 05:22:00,31.0,31.0,-100.00,East,80,4.0,6.0,99,0.00,,,0.00,1.000000,,2012-11-02 12:22:00,
2012-11-02 05:32:00,31.0,31.0,-100.00,East,80,4.0,6.0,99,0.00,,,0.00,1.000000,,2012-11-02 12:32:00,
2012-11-02 05:42:00,31.0,31.0,-100.00,East,80,4.0,6.0,99,0.00,,,0.00,1.000000,,2012-11-02 12:42:00,
2012-11-02 05:52:00,31.0,31.0,-100.00,East,80,4.0,6.0,99,0.00,,,0.00,1.000000,,2012-11-02 12:52:00,
2012-11-02 06:22:00,31.0,31.0,-100.00,East,86,4.0,6.0,99,0.00,,,0.00,1.000000,,2012-11-02 13:22:00,
2012-11-02 06:32:00,31.0,31.0,-100.00,East,86,4.0,6.0,99,0.00,,,0.00,1.000000,,2012-11-02 13:32:00,
2012-11-02 06:42:00,31.0,31.0,-100.00,East,86,4.0,6.0,99,0.00,,,0.00,1.000000,,2012-11-02 13:42:00,
2012-11-02 06:52:00,31.0,31.0,-100.00,East,86,4.0,6.0,99,0.00,,,0.00,1.000000,,2012-11-02 13:52:00,
2012-11-02 07:22:00,30.0,30.0,-100.00,ENE,71,3.0,6.0,99,0.00,,,0.00,1.000000,,2012-11-02 14:22:00,
2012-11-02 07:32:00,30.0,30.0,-100.00,ENE,71,3.0,6.0,99,0.00,,,0.00,1.000000,,2012-11-02 14:32:00,
2012-11-02 07:42:00,30.0,30.0,-100.00,ENE,71,3.0,6.0,99,0.00,,,0.00,1.000000,,2012-11-02 14:42:00,
2012-11-02 07:52:00,30.0,30.0,-100.00,ENE,71,3.0,6.0,99,0.00,,,0.00,1.000000,,2012-11-02 14:52:00,
2012-11-02 08:22:00,30.0,30.0,-100.00,ENE,78,2.0,6.0,99,0.00,,,0.00,4.000000,,2012-11-02 15:22:00,
2012-11-02 08:32:00,30.0,30.0,-100.00,ENE,78,2.0,6.0,99,0.00,,,0.00,4.000000,,2012-11-02 15:32:00,
2012-11-02 08:42:00,30.0,30.0,-100.00,ENE,78,2.0,6.0,99,0.00,,,0.00,4.000000,,2012-11-02 15:42:00,
2012-11-02 08:52:00,30.0,30.0,-100.00,ENE,78,2.0,6.0,99,0.00,,,0.00,4.000000,,2012-11-02 15:52:00,
2012-11-02 09:22:00,31.0,31.0,-100.00,East,83,3.0,6.0,98,0.00,,,0.00,53.000000,,2012-11-02 16:22:00,
2012-11-02 09:32:00,31.0,31.0,-100.00,East,83,3.0,6.0,98,0.00,,,0.00,53.000000,,2012-11-02 16:32:00,
2012-11-02 09:42:00,31.0,31.0,-100.00,East,83,3.0,6.0,98,0.00,,,0.00,53.000000,,2012-11-02 16:42:00,
2012-11-02 09:53:00,31.0,31.0,-100.00,East,83,3.0,6.0,98,0.00,,,0.00,53.000000,,2012-11-02 16:53:00,
2012-11-02 10:22:00,35.0,33.0,-100.00,East,95,4.0,6.0,92,0.01,,,0.01,204.000000,,2012-11-02 17:22:00,
2012-11-02 10:32:00,35.0,33.0,-100.00,East,95,4.0,6.0,92,0.01,,,0.01,204.000000,,2012-11-02 17:32:00,
2012-11-02 10:42:00,35.0,33.0,-100.00,East,95,4.0,6.0,92,0.01,,,0.01,204.000000,,2012-11-02 17:42:00,
2012-11-02 10:52:00,35.0,33.0,-100.00,East,95,4.0,6.0,92,0.01,,,0.01,204.000000,,2012-11-02 17:52:00,
2012-11-02 11:22:00,39.0,36.0,-100.00,NW,324,2.0,6.0,89,0.00,,,0.01,215.000000,,2012-11-02 18:22:00,
2012-11-02 11:33:00,39.0,36.0,-100.00,NW,324,2.0,6.0,89,0.00,,,0.01,215.000000,,2012-11-02 18:33:00,
2012-11-02 11:42:00,39.0,36.0,-100.00,NW,324,2.0,6.0,89,0.00,,,0.01,215.000000,,2012-11-02 18:42:00,
2012-11-02 11:52:00,39.0,36.0,-100.00,NW,324,2.0,6.0,89,0.00,,,0.01,215.000000,,2012-11-02 18:52:00,
2012-11-02 12:22:00,44.0,39.0,-100.00,WNW,298,3.0,6.0,81,0.00,,,0.01,339.000000,,2012-11-02 19:22:00,
2012-11-02 12:32:00,44.0,39.0,-100.00,WNW,298,3.0,6.0,81,0.00,,,0.01,339.000000,,2012-11-02 19:32:00,
2012-11-02 12:42:00,44.0,39.0,-100.00,WNW,298,3.0,6.0,81,0.00,,,0.01,339.000000,,2012-11-02 19:42:00,
2012-11-02 12:52:00,44.0,39.0,-100.00,WNW,298,3.0,6.0,81,0.00,,,0.01,339.000000,,2012-11-02 19:52:00,
2012-11-02 13:22:00,43.0,37.0,-100.00,West,268,3.0,9.0,80,0.00,,,0.01,360.000000,,2012-11-02 20:22:00,
2012-11-02 13:32:00,43.0,37.0,-100.00,West,268,3.0,9.0,80,0.00,,,0.01,360.000000,,2012-11-02 20:32:00,
2012-11-02 13:42:00,43.0,37.0,-100.00,West,268,3.0,9.0,80,0.00,,,0.01,360.000000,,2012-11-02 20:42:00,
2012-11-02 13:52:00,43.0,37.0,-100.00,West,268,3.0,9.0,80,0.00,,,0.01,360.000000,,2012-11-02 20:52:00,
2012-11-02 14:22:00,47.0,38.0,-100.00,WNW,292,3.0,5.0,72,0.00,,,0.01,329.000000,,2012-11-02 21:22:00,
2012-11-02 14:32:00,47.0,38.0,-100.00,WNW,292,3.0,5.0,72,0.00,,,0.01,329.000000,,2012-11-02 21:32:00,
2012-11-02 14:42:00,47.0,38.0,-100.00,WNW,292,3.0,5.0,72,0.00,,,0.01,329.000000,,2012-11-02 21:42:00,
2012-11-02 14:52:00,47.0,38.0,-100.00,WNW,292,3.0,5.0,72,0.00,,,0.01,329.000000,,2012-11-02 21:52:00,
2012-11-02 15:22:00,47.0,38.0,-100.00,NW,312,4.0,7.0,72,0.00,,,0.01,257.000000,,2012-11-02 22:22:00,
2012-11-02 15:32:00,47.0,38.0,-100.00,NW,312,4.0,7.0,72,0.00,,,0.01,257.000000,,2012-11-02 22:32:00,
2012-11-02 15:42:00,47.0,38.0,-100.00,NW,312,4.0,7.0,72,0.00,,,0.01,257.000000,,2012-11-02 22:42:00,
2012-11-02 15:52:00,47.0,38.0,-100.00,NW,312,4.0,7.0,72,0.00,,,0.01,257.000000,,2012-11-02 22:52:00,
2012-11-02 16:22:00,47.0,37.0,-100.00,West,277,4.0,7.0,68,0.00,,,0.01,185.000000,,2012-11-02 23:22:00,
2012-11-02 16:32:00,47.0,37.0,-100.00,West,277,4.0,7.0,68,0.00,,,0.01,185.000000,,2012-11-02 23:32:00,
2012-11-02 16:42:00,47.0,37.0,-100.00,West,277,4.0,7.0,68,0.00,,,0.01,185.000000,,2012-11-02 23:42:00,
2012-11-02 16:52:00,47.0,37.0,-100.00,West,277,4.0,7.0,68,0.00,,,0.01,185.000000,,2012-11-02 23:52:00,
2012-11-02 17:22:00,46.0,36.0,-100.00,West,271,3.0,7.0,69,0.00,,,0.01,90.000000,,2012-11-03 00:22:00,
2012-11-02 17:32:00,46.0,36.0,-100.00,West,271,3.0,7.0,69,0.00,,,0.01,90.000000,,2012-11-03 00:32:00,
2012-11-02 17:42:00,46.0,36.0,-100.00,West,271,3.0,7.0,69,0.00,,,0.01,90.000000,,2012-11-03 00:42:00,
2012-11-02 17:52:00,46.0,36.0,-100.00,West,271,3.0,7.0,69,0.00,,,0.01,90.000000,,2012-11-03 00:52:00,
2012-11-02 18:22:00,44.0,37.0,-100.00,East,94,1.0,5.0,77,0.00,,,0.01,18.000000,,2012-11-03 01:22:00,
2012-11-02 18:32:00,44.0,37.0,-100.00,East,94,1.0,5.0,77,0.00,,,0.01,18.000000,,2012-11-03 01:32:00,
2012-11-02 18:42:00,44.0,37.0,-100.00,East,94,1.0,5.0,77,0.00,,,0.01,18.000000,,2012-11-03 01:42:00,
2012-11-02 18:52:00,44.0,37.0,-100.00,East,94,1.0,5.0,77,0.00,,,0.01,18.000000,,2012-11-03 01:52:00,
2012-11-02 19:22:00,44.0,37.0,-100.00,WNW,302,1.0,2.0,75,0.00,,,0.01,1.000000,,2012-11-03 02:22:00,
2012-11-02 19:32:00,44.0,37.0,-100.00,WNW,302,1.0,2.0,75,0.00,,,0.01,1.000000,,2012-11-03 02:32:00,
2012-11-02 19:42:00,44.0,37.0,-100.00,WNW,302,1.0,2.0,75,0.00,,,0.01,1.000000,,2012-11-03 02:42:00,
2012-11-02 19:52:00,44.0,37.0,-100.00,WNW,302,1.0,2.0,75,0.00,,,0.01,1.000000,,2012-11-03 02:52:00,
2012-11-02 20:22:00,43.0,38.0,-100.00,East,88,2.0,2.0,82,0.00,,,0.01,1.000000,,2012-11-03 03:22:00,
2012-11-02 20:32:00,43.0,38.0,-100.00,East,88,2.0,2.0,82,0.00,,,0.01,1.000000,,2012-11-03 03:32:00,
2012-11-02 20:42:00,43.0,38.0,-100.00,East,88,2.0,2.0,82,0.00,,,0.01,1.000000,,2012-11-03 03:42:00,
2012-11-02 20:52:00,43.0,38.0,-100.00,East,88,2.0,2.0,82,0.00,,,0.01,1.000000,,2012-11-03 03:52:00,
2012-11-02 21:22:00,43.0,39.0,-100.00,SSE,149,2.0,4.0,85,0.00,,,0.01,1.000000,,2012-11-03 04:22:00,
2012-11-02 21:33:00,43.0,39.0,-100.00,SSE,149,2.0,4.0,85,0.00,,,0.01,1.000000,,2012-11-03 04:33:00,
2012-11-02 21:42:00,43.0,39.0,-100.00,SSE,149,2.0,4.0,85,0.00,,,0.01,1.000000,,2012-11-03 04:42:00,
2012-11-02 21:52:00,43.0,39.0,-100.00,SSE,149,2.0,4.0,85,0.00,,,0.01,1.000000,,2012-11-03 04:52:00,
2012-11-02 22:22:00,41.0,39.0,-100.00,ESE,103,2.0,3.0,92,0.00,,,0.01,1.000000,,2012-11-03 05:22:00,
2012-11-02 22:32:00,41.0,39.0,-100.00,ESE,103,2.0,3.0,92,0.00,,,0.01,1.000000,,2012-11-03 05:32:00,
2012-11-02 22:42:00,41.0,39.0,-100.00,ESE,103,2.0,3.0,92,0.00,,,0.01,1.000000,,2012-11-03 05:42:00,
2012-11-02 22:52:00,41.0,39.0,-100.00,ESE,103,2.0,3.0,92,0.00,,,0.01,1.000000,,2012-11-03 05:52:00,
2012-11-02 23:22:00,42.0,39.0,-100.00,SSW,192,1.0,4.0,88,0.00,,,0.01,1.000000,,2012-11-03 06:22:00,
2012-11-02 23:32:00,42.0,39.0,-100.00,SSW,192,1.0,4.0,88,0.00,,,0.01,1.000000,,2012-11-03 06:32:00,
2012-11-02 23:42:00,42.0,39.0,-100.00,SSW,192,1.0,4.0,88,0.00,,,0.01,1.000000,,2012-11-03 06:42:00,
2012-11-02 23:52:00,42.0,39.0,-100.00,SSW,192,1.0,4.0,88,0.00,,,0.01,1.000000,,2012-11-03 06:52:00,